Time;durP1;ratioP1;P1;durP2;ratioP2;P2;SDS_P1;SDS_P2;PMS_P1;PMS_P2;Temp;Humidity;BMP_temperature;BMP_pressure;BME280_temperature;BME280_humidity;BME280_pressure;Samples;Min_cycle;Max_cycle;Signal;HPM_P1;HPM_P2
2024/02/21 00:01:22;;;;;;;4.23;3.00;;;21.70;56.90;;;;;;5030901;28;20171;-70
2024/02/21 00:03:48;;;;;;;4.93;3.20;;;21.60;56.90;;;;;;5030674;28;20176;-70
2024/02/21 00:06:13;;;;;;;4.30;2.80;;;21.70;57.00;;;;;;5030462;28;20414;-69
2024/02/21 00:08:39;;;;;;;3.60;2.90;;;21.70;57.00;;;;;;5032063;28;20187;-70
2024/02/21 00:11:04;;;;;;;6.13;3.60;;;21.70;57.00;;;;;;5030423;28;20207;-69
2024/02/21 00:13:30;;;;;;;4.30;3.20;;;21.60;56.90;;;;;;5031814;28;20661;-69
2024/02/21 00:15:56;;;;;;;4.90;2.90;;;21.60;56.90;;;;;;5031787;28;20195;-69
2024/02/21 00:18:21;;;;;;;5.23;3.17;;;21.60;56.90;;;;;;5031586;28;20219;-69
2024/02/21 00:20:47;;;;;;;3.50;2.50;;;21.60;56.90;;;;;;5032085;28;20219;-69
2024/02/21 00:23:13;;;;;;;5.70;3.00;;;21.60;56.90;;;;;;5031534;28;20194;-70
2024/02/21 00:25:38;;;;;;;6.43;3.20;;;21.60;56.90;;;;;;5031804;28;20179;-68
2024/02/21 00:28:05;;;;;;;5.00;3.57;;;21.60;56.90;;;;;;5031699;28;20176;-70
2024/02/21 00:30:31;;;;;;;4.80;2.50;;;21.60;56.90;;;;;;5031525;28;20198;-69
2024/02/21 00:32:57;;;;;;;3.90;3.07;;;21.60;56.90;;;;;;5031267;28;20860;-70
2024/02/21 00:35:23;;;;;;;7.80;3.20;;;21.60;56.90;;;;;;5031600;28;20270;-67
2024/02/21 00:37:48;;;;;;;4.07;2.80;;;21.60;56.90;;;;;;5031722;28;20196;-70
2024/02/21 00:40:19;;;;;;;3.33;2.80;;;21.60;56.90;;;;;;5030038;28;20190;-69
2024/02/21 00:42:45;;;;;;;4.97;3.20;;;21.60;56.90;;;;;;5031199;28;20195;-69
2024/02/21 00:45:11;;;;;;;4.63;2.70;;;21.60;56.90;;;;;;5031178;28;20525;-69
2024/02/21 00:47:36;;;;;;;3.73;2.97;;;21.60;56.90;;;;;;5031805;28;20410;-69
2024/02/21 00:50:02;;;;;;;3.77;2.90;;;21.60;56.90;;;;;;5031284;28;20206;-70
2024/02/21 00:52:28;;;;;;;4.43;2.67;;;21.60;56.90;;;;;;5031381;28;20198;-70
2024/02/21 00:54:53;;;;;;;4.70;3.50;;;21.60;56.90;;;;;;5030186;28;20191;-68
2024/02/21 00:57:19;;;;;;;4.77;3.70;;;21.60;57.00;;;;;;5031475;28;20168;-69
2024/02/21 00:59:45;;;;;;;3.60;2.40;;;21.60;56.90;;;;;;5033307;28;20650;-70
2024/02/21 01:02:10;;;;;;;4.30;2.90;;;21.60;56.90;;;;;;5034018;28;20199;-70
2024/02/21 01:04:36;;;;;;;5.07;3.63;;;21.60;57.00;;;;;;5035162;28;20211;-70
2024/02/21 01:07:02;;;;;;;3.67;2.90;;;21.60;56.90;;;;;;5035023;28;20172;-69
2024/02/21 01:09:27;;;;;;;9.60;3.17;;;21.60;56.90;;;;;;5035516;28;20206;-70
2024/02/21 01:11:53;;;;;;;5.60;2.70;;;21.60;57.00;;;;;;5033802;28;20286;-69
2024/02/21 01:14:19;;;;;;;3.97;2.83;;;21.60;57.00;;;;;;5035845;28;20218;-69
2024/02/21 01:16:44;;;;;;;4.03;3.00;;;21.50;56.90;;;;;;5035357;28;20266;-69
2024/02/21 01:19:10;;;;;;;4.60;2.73;;;21.50;56.90;;;;;;5034856;28;20180;-69
2024/02/21 01:21:35;;;;;;;4.83;3.07;;;21.50;56.90;;;;;;5034625;28;20219;-69
2024/02/21 01:24:01;;;;;;;4.33;2.80;;;21.50;56.90;;;;;;5034912;28;20271;-70
2024/02/21 01:26:26;;;;;;;3.80;2.60;;;21.50;56.90;;;;;;5035021;28;20215;-70
2024/02/21 01:28:52;;;;;;;3.90;2.23;;;21.50;56.90;;;;;;5034819;28;20183;-70
2024/02/21 01:31:18;;;;;;;4.50;3.20;;;21.50;56.90;;;;;;5033225;28;20210;-70
2024/02/21 01:33:43;;;;;;;3.53;2.53;;;21.50;56.90;;;;;;5035158;28;20692;-69
2024/02/21 01:36:09;;;;;;;4.80;3.10;;;21.50;56.90;;;;;;5034467;28;20175;-69
2024/02/21 01:38:35;;;;;;;4.03;2.83;;;21.50;56.90;;;;;;5034773;28;20167;-69
2024/02/21 01:41:00;;;;;;;4.70;2.83;;;21.50;56.90;;;;;;5034650;28;20172;-69
2024/02/21 01:43:26;;;;;;;5.03;2.93;;;21.50;56.90;;;;;;5034663;28;20199;-70
2024/02/21 01:45:54;;;;;;;3.73;2.77;;;21.50;56.90;;;;;;5034565;28;20551;-70
2024/02/21 01:48:21;;;;;;;3.30;2.47;;;21.50;56.90;;;;;;5034036;28;20411;-70
2024/02/21 01:50:48;;;;;;;4.53;2.83;;;21.50;56.90;;;;;;5034193;28;20445;-69
2024/02/21 01:53:19;;;;;;;4.97;2.80;;;21.50;56.90;;;;;;5034330;28;20430;-70
2024/02/21 01:55:46;;;;;;;3.50;2.50;;;21.50;56.90;;;;;;5034579;28;20398;-69
2024/02/21 01:58:14;;;;;;;3.73;2.67;;;21.50;56.90;;;;;;5034226;28;20412;-70
2024/02/21 02:00:42;;;;;;;2.57;2.27;;;21.50;56.90;;;;;;5033841;28;20506;-70
2024/02/21 02:03:10;;;;;;;4.07;2.73;;;21.50;56.90;;;;;;5033908;28;20504;-69
2024/02/21 02:05:35;;;;;;;5.20;2.83;;;21.50;56.90;;;;;;5034140;28;20422;-69
2024/02/21 02:08:01;;;;;;;2.77;2.03;;;21.50;56.90;;;;;;5033787;28;20410;-69
2024/02/21 02:10:27;;;;;;;4.00;2.67;;;21.50;57.50;;;;;;5032263;28;20206;-70
2024/02/21 02:12:53;;;;;;;4.23;3.00;;;21.50;56.90;;;;;;5015647;28;20277;-69
2024/02/21 02:15:18;;;;;;;3.93;3.17;;;21.50;56.90;;;;;;5033630;28;20218;-70
2024/02/21 02:17:44;;;;;;;3.80;2.60;;;21.50;56.90;;;;;;5033725;28;20171;-69
2024/02/21 02:20:10;;;;;;;3.20;2.50;;;21.50;56.90;;;;;;5033705;28;20639;-70
2024/02/21 02:22:38;;;;;;;2.43;2.13;;;21.50;56.90;;;;;;5032272;28;20654;-69
2024/02/21 02:25:05;;;;;;;3.50;2.37;;;21.50;56.90;;;;;;5032010;28;20444;-69
2024/02/21 02:27:30;;;;;;;2.80;2.50;;;21.50;56.90;;;;;;5033536;28;20410;-69
2024/02/21 02:29:56;;;;;;;2.30;1.90;;;21.50;56.90;;;;;;5033770;28;21079;-69
2024/02/21 02:32:22;;;;;;;3.53;2.53;;;21.50;56.90;;;;;;5033798;28;20222;-70
2024/02/21 02:34:47;;;;;;;5.90;3.47;;;21.50;56.90;;;;;;5033459;28;20168;-70
2024/02/21 02:37:13;;;;;;;2.50;2.30;;;21.50;56.90;;;;;;5033676;28;20171;-70
2024/02/21 02:39:38;;;;;;;3.23;2.47;;;21.50;56.90;;;;;;5033437;28;20225;-70
2024/02/21 02:42:04;;;;;;;4.17;3.00;;;21.50;56.90;;;;;;5033599;28;20200;-69
2024/02/21 02:44:30;;;;;;;5.03;2.97;;;21.50;56.90;;;;;;5033400;28;20187;-69
2024/02/21 02:46:55;;;;;;;3.70;2.70;;;21.50;56.90;;;;;;5033420;28;20317;-70
2024/02/21 02:49:21;;;;;;;4.47;3.03;;;21.50;56.90;;;;;;5031733;28;20183;-70
2024/02/21 02:51:47;;;;;;;5.40;2.80;;;21.50;56.90;;;;;;5033452;28;20683;-68
2024/02/21 02:54:12;;;;;;;3.87;2.70;;;21.50;56.90;;;;;;5032803;28;20178;-71
2024/02/21 02:56:38;;;;;;;5.30;2.30;;;21.50;56.90;;;;;;5032980;28;20251;-70
2024/02/21 02:59:03;;;;;;;4.57;3.30;;;21.50;56.90;;;;;;5033132;28;20546;-69
2024/02/21 03:01:29;;;;;;;4.30;2.70;;;21.50;56.90;;;;;;5032757;28;20183;-69
2024/02/21 03:03:54;;;;;;;3.93;2.53;;;21.50;56.90;;;;;;5032867;28;20187;-70
2024/02/21 03:06:20;;;;;;;3.10;2.67;;;21.50;56.90;;;;;;5032771;28;20226;-70
2024/02/21 03:08:46;;;;;;;4.23;2.97;;;21.50;56.90;;;;;;5033228;28;20665;-70
2024/02/21 03:11:11;;;;;;;4.43;2.87;;;21.50;57.50;;;;;;5032601;28;20721;-70
2024/02/21 03:13:37;;;;;;;5.07;2.53;;;21.50;57.00;;;;;;5031262;28;20294;-69
2024/02/21 03:16:03;;;;;;;2.90;2.30;;;21.50;56.90;;;;;;5032386;28;20178;-70
2024/02/21 03:18:29;;;;;;;4.10;2.67;;;21.50;56.90;;;;;;5032754;28;20191;-69
2024/02/21 03:20:54;;;;;;;5.00;2.30;;;21.50;56.90;;;;;;5032414;28;20542;-69
2024/02/21 03:23:20;;;;;;;3.00;2.50;;;21.50;56.90;;;;;;5031559;28;20195;-69
2024/02/21 03:25:45;;;;;;;5.00;2.77;;;21.50;56.90;;;;;;5031254;28;20229;-69
2024/02/21 03:28:11;;;;;;;3.03;2.67;;;21.50;56.90;;;;;;5032402;28;20179;-69
2024/02/21 03:30:37;;;;;;;3.30;2.27;;;21.50;56.90;;;;;;5032509;28;20203;-70
2024/02/21 03:33:03;;;;;;;3.13;2.50;;;21.50;56.90;;;;;;5032308;28;20793;-69
2024/02/21 03:35:28;;;;;;;3.20;2.50;;;21.50;56.90;;;;;;5032525;28;20176;-69
2024/02/21 03:37:54;;;;;;;4.60;2.70;;;21.40;56.80;;;;;;5032000;28;20171;-70
2024/02/21 03:40:20;;;;;;;3.33;2.77;;;21.50;56.90;;;;;;5032309;28;20919;-69
2024/02/21 03:42:45;;;;;;;4.50;2.70;;;21.40;56.90;;;;;;5032342;28;20227;-70
2024/02/21 03:45:11;;;;;;;5.30;2.80;;;21.50;57.00;;;;;;5032115;28;20229;-70
2024/02/21 03:47:36;;;;;;;3.70;2.77;;;21.40;56.90;;;;;;5032421;28;20697;-69
2024/02/21 03:50:02;;;;;;;4.20;2.77;;;21.40;56.90;;;;;;5032557;28;20222;-69
2024/02/21 03:52:28;;;;;;;4.60;2.87;;;21.40;56.90;;;;;;5031877;28;20199;-70
2024/02/21 03:54:54;;;;;;;3.20;2.80;;;21.40;56.90;;;;;;5032287;28;20176;-69
2024/02/21 03:57:21;;;;;;;3.03;2.27;;;21.40;56.90;;;;;;5032187;28;20237;-70
2024/02/21 03:59:49;;;;;;;2.73;2.40;;;21.40;56.90;;;;;;5031981;28;20411;-69
2024/02/21 04:02:15;;;;;;;4.00;2.30;;;21.40;56.90;;;;;;5031560;28;20465;-70
2024/02/21 04:04:46;;;;;;;3.67;2.40;;;21.40;56.90;;;;;;5031932;28;21051;-69
2024/02/21 04:07:12;;;;;;;2.83;2.10;;;21.40;56.90;;;;;;5030309;28;20164;-70
2024/02/21 04:09:37;;;;;;;3.63;2.60;;;21.40;56.90;;;;;;5031491;28;20901;-69
2024/02/21 04:12:03;;;;;;;3.83;2.70;;;21.40;56.90;;;;;;5031989;28;20438;-69
2024/02/21 04:14:29;;;;;;;4.20;2.63;;;21.40;56.90;;;;;;5031874;28;20241;-70
2024/02/21 04:16:54;;;;;;;2.60;2.27;;;21.40;56.90;;;;;;5031533;28;20430;-69
2024/02/21 04:19:20;;;;;;;2.60;2.20;;;21.40;56.90;;;;;;5031225;28;20242;-69
2024/02/21 04:21:45;;;;;;;2.73;2.50;;;21.40;56.90;;;;;;5031456;28;20257;-69
2024/02/21 04:24:11;;;;;;;3.73;2.20;;;21.40;56.90;;;;;;5031436;28;20180;-70
2024/02/21 04:26:37;;;;;;;4.47;2.70;;;21.40;56.90;;;;;;5031667;28;20186;-70
2024/02/21 04:29:02;;;;;;;2.83;2.30;;;21.40;56.90;;;;;;5031589;28;20183;-70
2024/02/21 04:31:28;;;;;;;3.17;2.60;;;21.40;57.00;;;;;;5030547;28;20207;-70
2024/02/21 04:33:53;;;;;;;4.37;2.87;;;21.40;56.90;;;;;;5032881;28;20651;-70
2024/02/21 04:36:19;;;;;;;2.77;2.30;;;21.40;56.90;;;;;;5038007;28;20167;-69
2024/02/21 04:38:45;;;;;;;2.40;2.20;;;21.40;56.90;;;;;;5037892;28;20184;-69
2024/02/21 04:41:11;;;;;;;4.90;2.70;;;21.40;56.90;;;;;;5038119;28;20304;-69
2024/02/21 04:43:36;;;;;;;4.17;2.63;;;21.40;56.90;;;;;;5037952;28;20535;-70
2024/02/21 04:46:02;;;;;;;3.50;2.87;;;21.40;56.90;;;;;;5037813;28;20182;-69
2024/02/21 04:48:27;;;;;;;3.73;2.80;;;21.40;56.90;;;;;;5037898;28;20255;-70
2024/02/21 04:50:53;;;;;;;3.40;2.40;;;21.40;56.90;;;;;;5037584;28;20203;-70
2024/02/21 04:53:19;;;;;;;2.47;2.27;;;21.40;56.90;;;;;;5037651;28;20557;-70
2024/02/21 04:55:44;;;;;;;3.30;2.23;;;21.40;56.90;;;;;;5037992;28;20186;-69
2024/02/21 04:58:10;;;;;;;2.87;2.40;;;21.40;56.90;;;;;;5037855;28;20682;-70
2024/02/21 05:00:35;;;;;;;3.80;2.93;;;21.40;56.90;;;;;;5037755;28;20175;-70
2024/02/21 05:03:01;;;;;;;3.03;2.20;;;21.40;56.90;;;;;;5037785;28;20253;-69
2024/02/21 05:05:26;;;;;;;2.83;2.37;;;21.40;56.90;;;;;;5037893;28;20258;-69
2024/02/21 05:07:52;;;;;;;3.37;2.37;;;21.40;56.90;;;;;;5036485;28;20179;-69
2024/02/21 05:10:19;;;;;;;2.83;2.20;;;21.40;56.90;;;;;;5037868;28;20257;-69
2024/02/21 05:12:44;;;;;;;5.63;2.63;;;21.40;56.90;;;;;;5037735;28;20674;-68
2024/02/21 05:15:10;;;;;;;3.30;2.60;;;21.40;57.40;;;;;;5037802;28;20493;-69
2024/02/21 05:17:36;;;;;;;4.17;2.27;;;21.40;56.90;;;;;;5037563;28;20168;-69
2024/02/21 05:20:01;;;;;;;3.87;2.23;;;21.40;56.90;;;;;;5035939;28;20195;-70
2024/02/21 05:22:27;;;;;;;3.20;2.57;;;21.40;56.90;;;;;;5054537;28;20216;-68
2024/02/21 05:24:53;;;;;;;2.50;2.00;;;21.40;56.90;;;;;;5057659;28;20644;-69
2024/02/21 05:27:18;;;;;;;2.70;2.10;;;21.40;56.90;;;;;;5056460;28;20210;-70
2024/02/21 05:29:44;;;;;;;3.13;2.50;;;21.40;56.80;;;;;;5057432;28;20210;-69
2024/02/21 05:32:10;;;;;;;4.20;3.10;;;21.40;56.80;;;;;;5057232;28;20557;-70
2024/02/21 05:34:35;;;;;;;3.50;2.20;;;21.50;56.90;;;;;;5057857;28;20201;-69
2024/02/21 05:37:01;;;;;;;4.03;2.20;;;21.50;56.90;;;;;;5057285;28;20163;-69
2024/02/21 05:39:28;;;;;;;2.60;2.30;;;21.40;56.80;;;;;;5057273;28;20171;-69
2024/02/21 05:41:54;;;;;;;3.47;2.23;;;21.40;56.80;;;;;;5057495;28;20706;-69
2024/02/21 05:44:19;;;;;;;2.63;2.27;;;21.40;56.70;;;;;;5057038;28;20406;-69
2024/02/21 05:46:45;;;;;;;2.93;2.00;;;21.40;56.70;;;;;;5053873;28;20261;-69
2024/02/21 05:49:11;;;;;;;3.50;2.30;;;21.50;56.80;;;;;;5054031;28;20721;-70
2024/02/21 05:51:37;;;;;;;3.27;2.00;;;21.40;57.30;;;;;;5054029;28;20462;-71
2024/02/21 05:54:02;;;;;;;3.30;2.17;;;21.40;56.80;;;;;;5053162;28;20698;-70
2024/02/21 05:56:28;;;;;;;2.57;2.20;;;21.50;56.80;;;;;;5053809;28;20250;-70
2024/02/21 05:58:54;;;;;;;2.40;2.20;;;21.40;56.70;;;;;;5054238;28;20189;-69
2024/02/21 06:01:21;;;;;;;2.40;1.70;;;21.40;56.70;;;;;;5052435;28;20171;-69
2024/02/21 06:03:47;;;;;;;2.13;1.93;;;21.40;56.70;;;;;;5054297;28;20628;-69
2024/02/21 06:06:12;;;;;;;3.43;3.03;;;21.40;56.70;;;;;;5054405;28;20417;-70
2024/02/21 06:08:40;;;;;;;4.23;1.80;;;21.50;56.80;;;;;;5053784;28;20210;-70
2024/02/21 06:11:05;;;;;;;3.17;2.00;;;21.40;56.70;;;;;;5053618;28;20202;-69
2024/02/21 06:13:31;;;;;;;3.10;2.00;;;21.40;56.70;;;;;;5054709;28;20489;-69
2024/02/21 06:15:56;;;;;;;2.30;2.00;;;21.40;56.80;;;;;;5054519;28;20202;-70
2024/02/21 06:18:22;;;;;;;2.90;1.97;;;21.50;56.80;;;;;;5053645;28;20244;-69
2024/02/21 06:20:47;;;;;;;3.63;1.83;;;21.50;56.80;;;;;;5054757;28;20537;-69
2024/02/21 06:23:15;;;;;;;1.90;1.50;;;21.50;56.80;;;;;;5054591;28;20252;-69
2024/02/21 06:25:41;;;;;;;2.63;2.20;;;21.50;56.80;;;;;;5054263;28;20179;-69
2024/02/21 06:28:06;;;;;;;2.93;1.77;;;21.50;56.80;;;;;;5053588;28;20416;-69
2024/02/21 06:30:32;;;;;;;2.80;2.13;;;21.50;56.80;;;;;;5053898;28;20987;-70
2024/02/21 06:32:59;;;;;;;3.00;1.90;;;21.50;56.80;;;;;;5053681;28;20191;-69
2024/02/21 06:35:24;;;;;;;2.67;1.90;;;21.50;56.80;;;;;;5054091;28;20174;-68
2024/02/21 06:37:51;;;;;;;2.37;1.90;;;21.50;56.80;;;;;;5052477;28;21087;-69
2024/02/21 06:40:18;;;;;;;2.20;1.97;;;21.50;56.70;;;;;;5054032;28;20171;-69
2024/02/21 06:42:43;;;;;;;3.17;2.20;;;21.50;56.70;;;;;;5053291;28;20425;-68
2024/02/21 06:45:09;;;;;;;4.97;2.17;;;21.60;56.80;;;;;;5053738;28;20781;-69
2024/02/21 06:47:34;;;;;;;1.90;1.70;;;21.60;56.70;;;;;;5053220;28;20174;-70
2024/02/21 06:50:00;;;;;;;4.23;1.83;;;21.60;56.70;;;;;;5053869;28;20199;-69
2024/02/21 06:52:26;;;;;;;2.83;1.90;;;21.60;56.70;;;;;;5053522;28;20238;-70
2024/02/21 06:54:52;;;;;;;2.47;1.80;;;21.60;56.70;;;;;;5054037;28;20250;-69
2024/02/21 06:57:18;;;;;;;4.40;2.10;;;21.60;56.70;;;;;;5053547;28;20865;-68
2024/02/21 06:59:43;;;;;;;2.43;2.10;;;21.70;56.70;;;;;;5053584;28;20175;-68
2024/02/21 07:02:09;;;;;;;4.00;1.97;;;21.70;56.70;;;;;;5053942;28;20604;-69
2024/02/21 07:04:35;;;;;;;2.50;1.63;;;21.70;56.70;;;;;;5053417;28;20224;-70
2024/02/21 07:07:00;;;;;;;2.20;2.00;;;21.70;56.70;;;;;;5053697;28;20167;-68
2024/02/21 07:09:28;;;;;;;4.30;2.17;;;21.70;56.70;;;;;;5052988;28;20198;-69
2024/02/21 07:11:54;;;;;;;4.03;2.43;;;21.70;56.70;;;;;;5053238;28;20222;-70
2024/02/21 07:14:19;;;;;;;3.13;2.10;;;21.70;56.70;;;;;;5053536;28;20824;-68
2024/02/21 07:16:45;;;;;;;2.57;1.77;;;21.70;56.70;;;;;;5053197;28;20199;-68
2024/02/21 07:19:10;;;;;;;5.40;2.17;;;21.70;56.70;;;;;;5052922;28;20179;-69
2024/02/21 07:21:37;;;;;;;3.43;2.00;;;21.70;56.70;;;;;;5052921;28;20892;-70
2024/02/21 07:24:04;;;;;;;4.30;1.93;;;21.70;56.70;;;;;;5052955;28;20182;-69
2024/02/21 07:26:31;;;;;;;3.90;2.53;;;21.70;56.70;;;;;;5052894;28;20948;-69
2024/02/21 07:28:56;;;;;;;3.70;1.90;;;21.70;56.80;;;;;;5051168;28;20428;-69
2024/02/21 07:31:22;;;;;;;2.13;1.77;;;21.70;56.80;;;;;;5052566;28;20484;-70
2024/02/21 07:33:47;;;;;;;3.03;2.00;;;21.70;56.70;;;;;;5053024;28;20244;-70
2024/02/21 07:36:15;;;;;;;2.70;1.70;;;21.70;56.70;;;;;;5052911;28;20171;-68
2024/02/21 07:38:41;;;;;;;2.13;1.70;;;21.70;56.70;;;;;;5052788;28;20663;-69
2024/02/21 07:41:07;;;;;;;2.60;1.90;;;21.70;56.70;;;;;;5052501;28;20409;-68
2024/02/21 07:43:32;;;;;;;2.80;1.90;;;21.70;56.70;;;;;;5052457;28;21036;-68
2024/02/21 07:45:58;;;;;;;2.70;1.70;;;21.70;56.70;;;;;;5051049;28;20179;-68
2024/02/21 07:48:26;;;;;;;3.03;2.07;;;21.70;56.70;;;;;;5050750;28;20182;-70
2024/02/21 07:50:52;;;;;;;2.47;1.50;;;21.70;56.70;;;;;;5052500;28;20627;-69
2024/02/21 07:53:18;;;;;;;2.20;1.70;;;21.80;56.70;;;;;;5052905;28;20433;-68
2024/02/21 07:55:43;;;;;;;3.03;1.40;;;21.80;56.80;;;;;;5052242;28;20591;-70
2024/02/21 07:58:09;;;;;;;4.00;2.17;;;21.80;56.70;;;;;;5052802;28;20171;-69
2024/02/21 08:00:34;;;;;;;2.80;2.10;;;21.80;56.70;;;;;;5052348;28;20175;-70
2024/02/21 08:03:00;;;;;;;2.13;1.77;;;21.80;56.70;;;;;;5052296;28;20214;-69
2024/02/21 08:05:26;;;;;;;3.40;1.80;;;21.80;56.80;;;;;;5052497;28;20248;-70
2024/02/21 08:07:51;;;;;;;1.70;1.50;;;21.80;56.80;;;;;;5052353;28;20206;-67
2024/02/21 08:10:17;;;;;;;2.20;1.70;;;21.80;56.80;;;;;;5051073;28;20254;-68
2024/02/21 08:12:42;;;;;;;3.43;2.40;;;21.80;56.80;;;;;;5051175;28;20199;-69
2024/02/21 08:15:10;;;;;;;2.43;1.73;;;21.80;56.80;;;;;;5051016;28;20179;-68
2024/02/21 08:17:36;;;;;;;3.20;1.80;;;21.80;56.90;;;;;;5052834;28;20175;-67
2024/02/21 08:20:02;;;;;;;2.70;1.87;;;21.80;56.90;;;;;;5051994;28;20491;-70
2024/02/21 08:22:28;;;;;;;2.10;1.40;;;21.80;56.90;;;;;;5052259;28;20437;-69
2024/02/21 08:24:54;;;;;;;2.57;2.13;;;21.80;56.90;;;;;;5052572;28;20413;-68
2024/02/21 08:27:19;;;;;;;3.37;1.70;;;21.80;56.90;;;;;;5050725;28;20197;-70
2024/02/21 08:29:45;;;;;;;3.50;1.87;;;21.80;56.90;;;;;;5052229;28;20175;-68
2024/02/21 08:32:10;;;;;;;3.13;1.70;;;21.80;56.90;;;;;;5052025;28;20183;-69
2024/02/21 08:34:36;;;;;;;2.23;1.93;;;21.80;57.00;;;;;;5052578;28;20167;-69
2024/02/21 08:37:02;;;;;;;3.37;2.07;;;21.80;57.00;;;;;;5052494;28;20197;-70
2024/02/21 08:39:29;;;;;;;2.80;1.90;;;21.80;57.00;;;;;;5050858;28;20170;-69
2024/02/21 08:41:55;;;;;;;3.37;1.90;;;21.80;57.00;;;;;;5050257;28;20670;-69
2024/02/21 08:44:25;;;;;;;2.53;1.80;;;21.80;57.00;;;;;;5052078;28;20409;-70
2024/02/21 08:46:51;;;;;;;4.27;2.20;;;21.80;57.00;;;;;;5050523;28;20228;-68
2024/02/21 08:49:17;;;;;;;1.77;1.60;;;21.80;57.00;;;;;;5051984;28;20441;-69
2024/02/21 08:51:43;;;;;;;2.90;1.60;;;21.80;57.00;;;;;;5051766;28;20195;-70
2024/02/21 08:54:08;;;;;;;2.97;1.47;;;21.80;57.00;;;;;;5052484;28;20630;-68
2024/02/21 08:56:35;;;;;;;4.57;2.07;;;21.80;57.00;;;;;;5050575;28;20409;-69
2024/02/21 08:59:01;;;;;;;4.17;2.00;;;21.80;57.00;;;;;;5052472;28;20217;-68
2024/02/21 09:01:26;;;;;;;3.07;1.70;;;21.80;57.00;;;;;;5049584;28;20412;-70
2024/02/21 09:03:53;;;;;;;2.70;2.27;;;21.80;57.10;;;;;;5051899;28;20409;-69
2024/02/21 09:06:19;;;;;;;4.73;1.97;;;21.80;57.00;;;;;;5051909;28;20253;-70
2024/02/21 09:08:45;;;;;;;2.00;1.70;;;21.80;57.00;;;;;;5051527;28;20996;-69
2024/02/21 09:11:11;;;;;;;4.37;2.00;;;21.80;57.00;;;;;;5052190;28;20555;-70
2024/02/21 09:13:37;;;;;;;3.17;2.10;;;21.80;57.00;;;;;;5051688;28;20512;-70
2024/02/21 09:16:03;;;;;;;2.80;1.93;;;21.80;57.00;;;;;;5051649;28;20221;-70
2024/02/21 09:18:29;;;;;;;2.93;1.67;;;21.80;57.00;;;;;;5051307;28;20190;-69
2024/02/21 09:20:55;;;;;;;2.63;1.70;;;21.80;57.00;;;;;;5052107;28;20470;-70
2024/02/21 09:23:20;;;;;;;2.23;1.87;;;21.80;57.00;;;;;;5055214;28;20999;-68
2024/02/21 09:25:46;;;;;;;2.37;1.80;;;21.80;57.00;;;;;;5055393;28;20182;-69
2024/02/21 09:28:13;;;;;;;3.30;1.90;;;21.80;57.10;;;;;;5053841;28;20193;-69
2024/02/21 09:30:38;;;;;;;2.87;1.70;;;21.80;57.00;;;;;;5055370;28;20195;-68
2024/02/21 09:33:04;;;;;;;2.70;1.90;;;21.80;57.00;;;;;;5055673;28;20429;-69
2024/02/21 09:35:30;;;;;;;2.10;1.67;;;21.80;57.00;;;;;;5055117;28;20248;-69
2024/02/21 09:37:56;;;;;;;3.60;1.90;;;21.80;57.00;;;;;;5055228;28;20401;-68
2024/02/21 09:40:22;;;;;;;2.47;1.50;;;21.80;57.00;;;;;;5055263;28;20254;-69
2024/02/21 09:42:48;;;;;;;2.13;1.30;;;21.80;57.00;;;;;;5053692;28;20221;-69
2024/02/21 09:45:24;;;;;;;3.27;2.10;;;21.80;57.60;;;;;;5055230;28;20203;-70
2024/02/21 09:48:20;;;;;;;4.77;2.03;;;21.80;57.00;;;;;;5054899;28;20462;-70
2024/02/21 09:50:48;;;;;;;1.80;1.47;;;21.80;57.00;;;;;;5053093;28;20467;-70
2024/02/21 09:53:15;;;;;;;2.60;1.67;;;21.80;57.00;;;;;;5054567;28;20425;-68
2024/02/21 09:55:41;;;;;;;2.33;1.70;;;21.80;57.00;;;;;;5055477;28;20500;-70
2024/02/21 09:58:11;;;;;;;2.47;1.53;;;21.80;57.10;;;;;;5054828;28;20497;-70
2024/02/21 10:00:36;;;;;;;1.93;1.47;;;21.80;57.00;;;;;;5054866;28;20517;-69
2024/02/21 10:03:07;;;;;;;2.50;1.70;;;21.80;57.00;;;;;;5054404;28;20528;-71
2024/02/21 10:05:35;;;;;;;1.63;1.53;;;21.80;57.00;;;;;;5053275;28;20197;-70
2024/02/21 10:08:01;;;;;;;2.37;1.50;;;21.80;57.00;;;;;;5054709;28;20870;-70
2024/02/21 10:10:27;;;;;;;2.50;1.53;;;21.80;57.00;;;;;;5054498;28;20848;-69
2024/02/21 10:12:57;;;;;;;2.70;1.77;;;21.80;57.10;;;;;;5054650;28;20432;-69
2024/02/21 10:15:24;;;;;;;2.33;1.40;;;21.80;57.10;;;;;;5054161;28;20413;-70
2024/02/21 10:17:58;;;;;;;2.33;1.93;;;21.80;57.10;;;;;;5054718;28;20467;-67
2024/02/21 10:20:25;;;;;;;2.00;1.60;;;21.80;57.10;;;;;;5054496;28;20453;-70
2024/02/21 10:23:07;;;;;;;2.80;1.50;;;21.80;57.10;;;;;;5054179;28;20436;-69
2024/02/21 10:25:45;;;;;;;4.17;2.07;;;21.80;57.10;;;;;;5054446;28;20390;-69
2024/02/21 10:28:12;;;;;;;2.23;1.90;;;21.80;57.10;;;;;;5053887;28;20377;-70
2024/02/21 10:30:38;;;;;;;1.80;1.30;;;21.80;57.10;;;;;;5054415;28;20503;-69
2024/02/21 10:33:05;;;;;;;1.90;1.30;;;21.80;57.20;;;;;;5053569;28;20433;-69
2024/02/21 10:35:32;;;;;;;1.80;1.60;;;21.80;57.20;;;;;;5054511;28;20199;-70
2024/02/21 10:37:59;;;;;;;2.20;1.60;;;21.80;57.20;;;;;;5054011;28;20413;-71
2024/02/21 10:40:32;;;;;;;1.83;1.30;;;21.80;57.20;;;;;;5054453;28;20436;-68
2024/02/21 10:43:03;;;;;;;2.00;1.40;;;21.80;57.20;;;;;;5054047;28;20467;-69
2024/02/21 10:45:31;;;;;;;2.00;1.27;;;21.80;57.20;;;;;;5053815;28;20398;-69
2024/02/21 10:48:02;;;;;;;3.20;1.73;;;21.80;57.20;;;;;;5053584;28;20431;-67
2024/02/21 10:50:32;;;;;;;3.70;1.57;;;21.80;57.20;;;;;;5054050;28;20460;-69
2024/02/21 10:53:17;;;;;;;2.50;1.87;;;21.80;57.20;;;;;;5053816;28;20465;-68
2024/02/21 10:55:50;;;;;;;1.97;1.50;;;21.80;57.20;;;;;;5054214;28;20464;-68
2024/02/21 10:58:18;;;;;;;3.37;1.60;;;21.80;57.20;;;;;;5052230;28;20412;-69
2024/02/21 11:00:43;;;;;;;2.20;1.70;;;21.80;57.20;;;;;;5053491;28;20463;-69
2024/02/21 11:03:09;;;;;;;1.30;1.07;;;21.80;57.20;;;;;;5053895;28;20437;-69
2024/02/21 11:05:35;;;;;;;2.20;1.80;;;21.80;57.20;;;;;;5053638;28;20527;-70
2024/02/21 11:08:02;;;;;;;2.73;1.23;;;21.80;57.20;;;;;;5053397;28;20201;-70
2024/02/21 11:10:27;;;;;;;4.20;1.57;;;21.80;57.20;;;;;;5053223;28;20461;-69
2024/02/21 11:13:14;;;;;;;2.03;1.50;;;21.80;57.20;;;;;;5053439;28;20440;-68
2024/02/21 11:15:39;;;;;;;2.63;1.30;;;21.80;57.20;;;;;;5053801;28;20242;-68
2024/02/21 11:18:05;;;;;;;2.70;1.80;;;21.80;57.20;;;;;;5053035;28;20567;-69
2024/02/21 11:20:35;;;;;;;3.20;2.27;;;21.80;57.20;;;;;;5051980;28;20619;-70
2024/02/21 11:23:01;;;;;;;2.83;1.67;;;21.80;57.70;;;;;;5053442;28;20186;-70
2024/02/21 11:25:30;;;;;;;3.60;1.90;;;21.80;57.20;;;;;;5053246;28;20467;-69
2024/02/21 11:28:03;;;;;;;4.47;2.70;;;21.80;57.20;;;;;;5051729;28;20178;-70
2024/02/21 11:30:34;;;;;;;2.30;2.10;;;21.80;57.20;;;;;;5053659;28;20448;-68
2024/02/21 11:33:05;;;;;;;3.37;2.03;;;21.80;57.20;;;;;;5053155;28;20536;-69
2024/02/21 11:35:33;;;;;;;3.40;2.00;;;21.80;57.20;;;;;;5051799;28;20460;-70
2024/02/21 11:38:14;;;;;;;3.60;2.03;;;21.80;57.30;;;;;;5052582;28;20456;-67
2024/02/21 11:40:41;;;;;;;3.83;2.40;;;21.80;57.20;;;;;;5052752;28;20413;-68
2024/02/21 11:43:07;;;;;;;3.93;1.80;;;21.80;57.30;;;;;;5052517;28;20441;-67
2024/02/21 11:45:33;;;;;;;3.60;2.00;;;21.80;57.30;;;;;;5052233;28;20421;-68
2024/02/21 11:48:00;;;;;;;3.77;2.50;;;21.80;57.20;;;;;;5053083;28;20752;-69
2024/02/21 11:50:26;;;;;;;4.37;1.97;;;21.80;57.30;;;;;;5052876;28;20462;-69
2024/02/21 11:52:55;;;;;;;3.37;2.20;;;21.80;57.30;;;;;;5053051;28;20434;-69
2024/02/21 11:55:21;;;;;;;4.00;2.30;;;21.80;57.30;;;;;;5052270;28;20409;-67
2024/02/21 11:57:50;;;;;;;3.07;2.17;;;21.80;57.30;;;;;;5052813;28;20772;-70
2024/02/21 12:00:20;;;;;;;3.90;2.27;;;21.80;57.20;;;;;;5052630;28;20448;-69
2024/02/21 12:02:45;;;;;;;2.60;1.70;;;21.80;57.30;;;;;;5052691;28;20536;-68
2024/02/21 12:05:12;;;;;;;3.47;2.00;;;21.80;57.30;;;;;;5052620;28;20853;-69
2024/02/21 12:07:41;;;;;;;4.43;2.13;;;21.80;57.30;;;;;;5051553;28;20604;-69
2024/02/21 12:10:15;;;;;;;3.87;2.50;;;21.80;57.30;;;;;;5052716;28;20951;-68
2024/02/21 12:12:41;;;;;;;3.30;2.23;;;21.80;57.30;;;;;;5052030;28;20425;-69
2024/02/21 12:15:08;;;;;;;4.10;2.30;;;21.80;57.30;;;;;;5052693;28;20469;-69
2024/02/21 12:17:34;;;;;;;3.20;2.40;;;21.80;57.30;;;;;;5051011;28;20374;-69
2024/02/21 12:20:01;;;;;;;2.90;2.07;;;21.80;57.30;;;;;;5052299;28;20441;-70
2024/02/21 12:22:27;;;;;;;5.20;2.20;;;21.80;57.30;;;;;;5052326;28;20437;-70
2024/02/21 12:24:53;;;;;;;6.83;2.10;;;21.80;57.30;;;;;;5052002;28;20409;-70
2024/02/21 12:27:19;;;;;;;2.77;1.90;;;21.80;57.30;;;;;;5052522;28;20417;-67
2024/02/21 12:29:44;;;;;;;6.63;2.50;;;21.80;57.20;;;;;;5052414;28;20181;-69
2024/02/21 12:32:10;;;;;;;4.03;2.27;;;21.80;57.20;;;;;;5051694;28;20190;-70
2024/02/21 12:34:36;;;;;;;3.47;1.93;;;21.80;57.30;;;;;;5052122;28;20175;-70
2024/02/21 12:37:03;;;;;;;3.63;2.33;;;21.80;57.30;;;;;;5052175;28;20456;-70
2024/02/21 12:39:28;;;;;;;4.80;2.70;;;21.80;57.30;;;;;;5051845;28;20189;-70
2024/02/21 12:41:56;;;;;;;4.23;2.30;;;21.80;57.30;;;;;;5051958;28;20433;-69
2024/02/21 12:44:22;;;;;;;5.00;2.00;;;21.80;57.30;;;;;;5052107;28;20175;-69